CheckWX is a tool to help pilots better visualize weather data.  It is not intended as a substitute for an official pre-flight weather briefing.

03:10:39 UTC

KGYB METAR
Giddings-Lee County Airport
Giddings, Texas, USA
Current

16 mins ago

KGYB 240255Z AUTO 14005KT 10SM CLR 28/24 A2991 RMK AO2 T02760235
Observed
Aug-24 @ 02:55 UTC
Wind
  • 140° at 5 KTS
Visibility
10 SM
Flight Rules
VFR
Cloud Levels
  • Clear skies
Temperature
28°C / 82°F
Dewpoint
24°C / 75°F
Heat Index
32°C / 89°F
Humidity
79%
Altimeter
29.91" Hg
Pressure
1012.92 hPa
Previous

36 mins ago

KGYB 240235Z AUTO 13006KT 10SM CLR 28/24 A2990 RMK AO2 T02800235
Observed
Aug-24 @ 02:35 UTC
Wind
  • 130° at 6 KTS
Visibility
10 SM
Flight Rules
VFR
Cloud Levels
  • Clear skies
Temperature
28°C / 82°F
Dewpoint
24°C / 75°F
Heat Index
32°C / 89°F
Humidity
79%
Altimeter
29.9" Hg
Pressure
1012.52 hPa
Previous

56 mins ago

KGYB 240215Z AUTO 12004KT 10SM CLR 28/24 A2990 RMK AO2 T02830235
Observed
Aug-24 @ 02:15 UTC
Wind
  • 120° at 4 KTS
Visibility
10 SM
Flight Rules
VFR
Cloud Levels
  • Clear skies
Temperature
28°C / 82°F
Dewpoint
24°C / 75°F
Heat Index
32°C / 89°F
Humidity
79%
Altimeter
29.9" Hg
Pressure
1012.52 hPa